createdAt,value
2023-03-04T00:00:33.851Z,93712.47
2023-03-04T00:01:30.484Z,93704.56
2023-03-04T00:02:27.083Z,93706.50
2023-03-04T00:03:23.748Z,93710.59
2023-03-04T00:04:20.389Z,93705.72
2023-03-04T00:05:17.157Z,93706.91
2023-03-04T00:06:13.839Z,93678.75
2023-03-04T00:07:10.762Z,93698.13
2023-03-04T00:08:07.467Z,93706.81
2023-03-04T00:09:04.782Z,93701.53
2023-03-04T00:10:01.556Z,93683.91
2023-03-04T00:10:58.452Z,93679.13
2023-03-04T00:11:55.116Z,93653.13
2023-03-04T00:12:51.781Z,93696.94
2023-03-04T00:13:48.378Z,93700.13
2023-03-04T00:14:45.034Z,93696.75
2023-03-04T00:15:41.682Z,93705.78
2023-03-04T00:16:38.390Z,93700.50
2023-03-04T00:17:34.981Z,93703.63
2023-03-04T00:18:31.601Z,93704.88
2023-03-04T00:19:28.206Z,93701.19
2023-03-04T00:20:24.859Z,93688.91
2023-03-04T00:21:22.193Z,93691.28
2023-03-04T00:22:18.822Z,93685.25
2023-03-04T00:23:15.934Z,93691.13
2023-03-04T00:24:12.540Z,93658.34
2023-03-04T00:25:09.402Z,93693.22
2023-03-04T00:26:05.964Z,93691.47
2023-03-04T00:27:02.522Z,93682.44
2023-03-04T00:27:59.757Z,93641.28
2023-03-04T00:28:56.378Z,93692.56
2023-03-04T00:29:53.010Z,93694.47
2023-03-04T00:30:49.869Z,93692.81
2023-03-04T00:31:46.525Z,93690.84
2023-03-04T00:32:43.265Z,93695.97
2023-03-04T00:33:40.489Z,93674.94
2023-03-04T00:34:37.185Z,93689.44
2023-03-04T00:35:33.906Z,93691.03
2023-03-04T00:36:30.585Z,93686.50
2023-03-04T00:37:27.164Z,93667.66
2023-03-04T00:38:23.807Z,93676.56
2023-03-04T00:39:20.444Z,93684.00
2023-03-04T00:40:17.731Z,93682.28
2023-03-04T00:41:14.372Z,93689.41
2023-03-04T00:42:10.945Z,93686.56
2023-03-04T00:43:07.556Z,93679.13
2023-03-04T00:44:05.137Z,93681.38
2023-03-04T00:45:01.850Z,93680.38
2023-03-04T00:45:58.681Z,93680.09
2023-03-04T00:46:55.325Z,93672.91
2023-03-04T00:47:51.904Z,93681.50
2023-03-04T00:48:48.489Z,93673.25
2023-03-04T00:49:45.162Z,93677.34
2023-03-04T00:50:42.340Z,93671.47
2023-03-04T00:51:38.923Z,93664.56
2023-03-04T00:52:35.517Z,93639.50
2023-03-04T00:53:32.075Z,93672.69
2023-03-04T00:54:28.728Z,93641.84
2023-03-04T00:55:25.301Z,93668.59
2023-03-04T00:56:21.938Z,93610.69
2023-03-04T00:57:18.784Z,93666.38
2023-03-04T00:58:15.511Z,93662.38
2023-03-04T00:59:12.065Z,93660.19
2023-03-04T01:00:09.564Z,93629.00
2023-03-04T01:01:07.626Z,93663.34
2023-03-04T01:02:04.512Z,93662.56
2023-03-04T01:03:01.177Z,93656.66
2023-03-04T01:03:57.805Z,93654.22
2023-03-04T01:04:54.485Z,93652.09
2023-03-04T01:05:51.017Z,93663.38
2023-03-04T01:06:47.643Z,93657.03
2023-03-04T01:07:44.734Z,93664.34
2023-03-04T01:08:41.348Z,93657.28
2023-03-04T01:09:37.992Z,93658.34
2023-03-04T01:10:34.703Z,93659.75
2023-03-04T01:11:31.396Z,93659.66
2023-03-04T01:12:28.394Z,93659.38
2023-03-04T01:13:25.035Z,93653.69
2023-03-04T01:14:21.662Z,93637.03
2023-03-04T01:15:18.530Z,93654.94
2023-03-04T01:16:15.150Z,93657.34
2023-03-04T01:17:12.634Z,93657.22
2023-03-04T01:18:09.376Z,93647.78
2023-03-04T01:19:05.981Z,93659.91
2023-03-04T01:20:03.318Z,93642.63
2023-03-04T01:21:00.100Z,93656.03
2023-03-04T01:21:56.690Z,93650.56
2023-03-04T01:22:53.291Z,93642.19
2023-03-04T01:23:49.832Z,93640.97
2023-03-04T01:24:46.640Z,93651.88
2023-03-04T01:25:43.237Z,93642.28
2023-03-04T01:26:39.809Z,93647.47
2023-03-04T01:27:36.427Z,93644.22
2023-03-04T01:28:36.008Z,93645.91
2023-03-04T01:29:32.706Z,93658.59
2023-03-04T01:30:29.293Z,93648.66
2023-03-04T01:31:26.130Z,93651.59
2023-03-04T01:32:22.938Z,93650.03
2023-03-04T01:33:19.606Z,93641.63
2023-03-04T01:34:18.124Z,93638.53
2023-03-04T01:35:14.762Z,93646.81
2023-03-04T01:36:11.703Z,93653.16
2023-03-04T01:37:09.402Z,93649.25
2023-03-04T01:38:06.078Z,93651.88
2023-03-04T01:39:02.849Z,93633.50
2023-03-04T01:39:59.689Z,93642.91
2023-03-04T01:40:56.454Z,93636.84
2023-03-04T01:41:53.093Z,93640.38
2023-03-04T01:42:49.826Z,93636.66
2023-03-04T01:43:46.486Z,93605.84
2023-03-04T01:44:44.165Z,93639.22
2023-03-04T01:45:40.779Z,93635.94
2023-03-04T01:46:38.135Z,93629.88
2023-03-04T01:47:36.143Z,93640.66
2023-03-04T01:48:38.312Z,93628.09
2023-03-04T01:49:35.113Z,93637.53
2023-03-04T01:50:34.141Z,93646.56
2023-03-04T01:51:30.825Z,93635.66
2023-03-04T01:52:28.159Z,93638.13
2023-03-04T01:53:27.426Z,93642.91
2023-03-04T01:54:24.045Z,93645.38
2023-03-04T01:55:22.275Z,93619.41
2023-03-04T01:56:30.375Z,93636.34
2023-03-04T01:57:27.396Z,93635.53
2023-03-04T01:58:28.540Z,93644.34
2023-03-04T01:59:27.356Z,93640.31
2023-03-04T02:00:31.300Z,93640.44
2023-03-04T02:01:27.966Z,93644.63
2023-03-04T02:02:24.621Z,93631.28
2023-03-04T02:03:22.407Z,93631.88
2023-03-04T02:04:29.951Z,93632.50
2023-03-04T02:05:28.402Z,93641.53
2023-03-04T02:06:25.225Z,93638.59
2023-03-04T02:07:21.820Z,93627.63
2023-03-04T02:08:21.227Z,93628.69
2023-03-04T02:09:18.421Z,93612.19
2023-03-04T02:10:15.060Z,93624.31
2023-03-04T02:11:11.646Z,93628.47
2023-03-04T02:12:08.330Z,93622.25
2023-03-04T02:13:05.579Z,93603.38
2023-03-04T02:14:02.316Z,93609.59
2023-03-04T02:14:58.965Z,93613.03
2023-03-04T02:15:55.882Z,93618.00
2023-03-04T02:16:52.663Z,93622.38
2023-03-04T02:17:50.118Z,93572.56
2023-03-04T02:18:46.799Z,93619.84
2023-03-04T02:19:56.500Z,93625.72
2023-03-04T02:21:10.159Z,93621.84
2023-03-04T02:22:07.035Z,93614.06
2023-03-04T02:23:10.710Z,93616.97
2023-03-04T02:24:15.276Z,93616.41
2023-03-04T02:25:19.683Z,93605.19
2023-03-04T02:26:22.012Z,93620.63
2023-03-04T02:27:20.432Z,93615.25
2023-03-04T02:28:18.762Z,93623.16
2023-03-04T02:29:17.341Z,93618.38
2023-03-04T02:30:20.017Z,93618.69
2023-03-04T02:31:24.822Z,93621.56
2023-03-04T02:32:21.528Z,93611.53
2023-03-04T02:33:19.438Z,93614.00
2023-03-04T02:34:21.985Z,93621.09
2023-03-04T02:35:19.761Z,93614.44
2023-03-04T02:36:16.619Z,93622.41
2023-03-04T02:37:13.511Z,93588.84
2023-03-04T02:38:12.221Z,93621.00
2023-03-04T02:39:22.047Z,93614.50
2023-03-04T02:40:27.196Z,93619.84
2023-03-04T02:41:26.720Z,93608.91
2023-03-04T02:42:23.345Z,93612.91
2023-03-04T02:43:20.024Z,93613.09
2023-03-04T02:44:22.907Z,93563.75
2023-03-04T02:45:39.501Z,93613.19
2023-03-04T02:46:36.126Z,93614.59
2023-03-04T02:47:32.772Z,93610.69
2023-03-04T02:48:29.394Z,93606.69
2023-03-04T02:49:28.223Z,93568.53
2023-03-04T02:50:26.234Z,93614.75
2023-03-04T02:51:22.827Z,93607.69
2023-03-04T02:52:22.361Z,93599.66
2023-03-04T02:53:20.819Z,93606.38
2023-03-04T02:54:20.314Z,93606.66
2023-03-04T02:55:17.062Z,93605.72
2023-03-04T02:56:13.657Z,93610.00
2023-03-04T02:57:12.184Z,93607.69
2023-03-04T02:58:08.789Z,93611.22
2023-03-04T02:59:05.390Z,93614.16
2023-03-04T03:00:02.027Z,93610.25
2023-03-04T03:00:58.757Z,93588.28
2023-03-04T03:01:55.960Z,93606.50
2023-03-04T03:02:52.798Z,93611.94
2023-03-04T03:03:49.416Z,93602.06
2023-03-04T03:04:46.246Z,93601.00
2023-03-04T03:05:42.913Z,93603.56
2023-03-04T03:06:40.355Z,93580.09
2023-03-04T03:07:38.246Z,93606.19
2023-03-04T03:08:34.853Z,93605.91
2023-03-04T03:09:31.495Z,93608.78
2023-03-04T03:10:28.342Z,93563.81
2023-03-04T03:11:26.673Z,93597.47
2023-03-04T03:12:23.336Z,93612.78
2023-03-04T03:13:19.964Z,93607.84
2023-03-04T03:14:16.746Z,93608.91
2023-03-04T03:15:13.701Z,93609.69
2023-03-04T03:16:10.406Z,93597.09
2023-03-04T03:17:07.078Z,93615.63
2023-03-04T03:18:03.703Z,93609.50
2023-03-04T03:19:00.454Z,93583.03
2023-03-04T03:19:57.050Z,93605.00
2023-03-04T03:20:53.640Z,93611.66
2023-03-04T03:21:50.400Z,93609.13
2023-03-04T03:22:47.580Z,93605.72
2023-03-04T03:23:44.269Z,93613.03
2023-03-04T03:24:40.872Z,93611.81
2023-03-04T03:25:37.599Z,93613.91
2023-03-04T03:26:34.246Z,93611.56
2023-03-04T03:27:30.834Z,93613.50
2023-03-04T03:28:27.563Z,93610.00
2023-03-04T03:29:24.175Z,93599.28
2023-03-04T03:30:21.160Z,93606.16
2023-03-04T03:31:18.691Z,93609.09
2023-03-04T03:32:15.372Z,93614.78
2023-03-04T03:33:11.953Z,93605.78
2023-03-04T03:34:08.817Z,93608.63
2023-03-04T03:35:05.837Z,93575.94
2023-03-04T03:36:02.821Z,93604.94
2023-03-04T03:36:59.566Z,93603.38
2023-03-04T03:37:56.181Z,93608.63
2023-03-04T03:38:52.757Z,93602.88
2023-03-04T03:39:49.414Z,93573.31
2023-03-04T03:40:46.031Z,93606.13
2023-03-04T03:41:42.779Z,93610.47
2023-03-04T03:42:39.348Z,93600.53
2023-03-04T03:43:36.015Z,93600.25
2023-03-04T03:44:32.638Z,93608.13
2023-03-04T03:45:29.267Z,93604.25
2023-03-04T03:46:25.914Z,93601.75
2023-03-04T03:47:23.772Z,93600.34
2023-03-04T03:48:20.383Z,93602.41
2023-03-04T03:49:17.317Z,93571.88
2023-03-04T03:50:14.158Z,93605.78
2023-03-04T03:51:10.916Z,93601.31
2023-03-04T03:52:08.473Z,93601.91
2023-03-04T03:53:05.372Z,93573.31
2023-03-04T03:54:02.034Z,93600.84
2023-03-04T03:55:02.009Z,93578.94
2023-03-04T03:55:59.610Z,93598.22
2023-03-04T03:56:56.308Z,93599.47
2023-03-04T03:57:52.947Z,93601.81
2023-03-04T03:58:49.558Z,93601.31
2023-03-04T03:59:46.141Z,93603.66
2023-03-04T04:00:42.754Z,93578.81
2023-03-04T04:01:39.498Z,93597.03
2023-03-04T04:02:36.254Z,93594.50
2023-03-04T04:03:32.864Z,93533.19
2023-03-04T04:04:29.622Z,93594.09
2023-03-04T04:05:26.752Z,93591.16
2023-03-04T04:06:23.437Z,93586.38
2023-03-04T04:07:20.218Z,93568.19
2023-03-04T04:08:17.964Z,93587.16
2023-03-04T04:09:14.550Z,93593.38
2023-03-04T04:10:11.726Z,93586.72
2023-03-04T04:11:12.834Z,93589.81
2023-03-04T04:12:09.652Z,93581.56
2023-03-04T04:13:06.189Z,93587.81
2023-03-04T04:14:02.876Z,93589.19
2023-03-04T04:14:59.546Z,93588.91
2023-03-04T04:15:56.174Z,93586.72
2023-03-04T04:16:53.003Z,93582.38
2023-03-04T04:17:49.586Z,93585.59
2023-03-04T04:18:46.151Z,93586.38
2023-03-04T04:19:42.934Z,93548.13
2023-03-04T04:20:39.503Z,93581.56
2023-03-04T04:21:36.176Z,93595.22
2023-03-04T04:22:32.900Z,93578.94
2023-03-04T04:23:29.498Z,93577.72
2023-03-04T04:24:26.274Z,93574.28
2023-03-04T04:25:22.891Z,93549.19
2023-03-04T04:26:19.470Z,93578.28
2023-03-04T04:27:16.156Z,93571.16
2023-03-04T04:28:12.701Z,93571.16
2023-03-04T04:29:12.983Z,93572.72
2023-03-04T04:30:10.470Z,93578.78
2023-03-04T04:31:09.247Z,93572.84
2023-03-04T04:32:06.287Z,93577.63
2023-03-04T04:33:04.852Z,93578.22
2023-03-04T04:34:01.812Z,93550.09
2023-03-04T04:34:58.523Z,93578.78
2023-03-04T04:35:55.132Z,93581.53
2023-03-04T04:36:51.913Z,93549.31
2023-03-04T04:37:48.507Z,93585.53
2023-03-04T04:38:45.835Z,93547.34
2023-03-04T04:39:42.355Z,93579.06
2023-03-04T04:40:38.940Z,93580.03
2023-03-04T04:41:39.418Z,93572.25
2023-03-04T04:42:36.047Z,93578.22
2023-03-04T04:43:32.666Z,93580.91
2023-03-04T04:44:29.305Z,93539.38
2023-03-04T04:45:25.956Z,93581.81
2023-03-04T04:46:22.667Z,93578.75
2023-03-04T04:47:19.415Z,93582.84
2023-03-04T04:48:16.005Z,93579.16
2023-03-04T04:49:12.859Z,93578.00
2023-03-04T04:50:10.216Z,93585.63
2023-03-04T04:51:06.974Z,93587.38
2023-03-04T04:52:03.700Z,93598.19
2023-03-04T04:53:00.514Z,93591.06
2023-03-04T04:53:57.244Z,93594.31
2023-03-04T04:54:53.893Z,93593.72
2023-03-04T04:55:50.468Z,93587.50
2023-03-04T04:56:47.170Z,93542.16
2023-03-04T04:57:45.960Z,93590.22
2023-03-04T04:58:43.851Z,93591.19
2023-03-04T04:59:40.486Z,93572.78
2023-03-04T05:00:37.079Z,93589.34
2023-03-04T05:01:33.813Z,93598.22
2023-03-04T05:02:31.315Z,93598.91
2023-03-04T05:03:27.979Z,93597.03
2023-03-04T05:04:24.721Z,93596.56
2023-03-04T05:05:21.344Z,93575.72
2023-03-04T05:06:17.942Z,93603.16
2023-03-04T05:07:14.646Z,93595.94
2023-03-04T05:08:11.212Z,93591.84
2023-03-04T05:09:08.136Z,93599.81
2023-03-04T05:10:05.688Z,93598.84
2023-03-04T05:11:03.253Z,93604.56
2023-03-04T05:11:59.851Z,93603.47
2023-03-04T05:12:56.428Z,93607.63
2023-03-04T05:13:53.054Z,93603.97
2023-03-04T05:14:49.676Z,93596.84
2023-03-04T05:15:47.126Z,93610.38
2023-03-04T05:16:43.714Z,93607.34
2023-03-04T05:17:40.288Z,93581.66
2023-03-04T05:18:37.427Z,93576.22
2023-03-04T05:19:33.987Z,93585.69
2023-03-04T05:20:30.556Z,93607.19
2023-03-04T05:21:27.111Z,93607.47
2023-03-04T05:22:23.726Z,93604.16
2023-03-04T05:23:21.039Z,93597.63
2023-03-04T05:24:17.688Z,93609.81
2023-03-04T05:25:14.284Z,93610.34
2023-03-04T05:26:15.045Z,93609.59
2023-03-04T05:27:11.754Z,93614.00
2023-03-04T05:28:12.491Z,93614.09
2023-03-04T05:29:09.081Z,93615.84
2023-03-04T05:30:06.277Z,93616.34
2023-03-04T05:31:03.295Z,93619.66
2023-03-04T05:31:59.919Z,93629.69
2023-03-04T05:32:56.593Z,93614.88
2023-03-04T05:33:53.224Z,93627.41
2023-03-04T05:34:49.934Z,93626.00
2023-03-04T05:35:48.948Z,93624.75
2023-03-04T05:36:45.721Z,93623.59
2023-03-04T05:37:42.268Z,93621.84
2023-03-04T05:38:38.871Z,93619.72
2023-03-04T05:39:35.530Z,93589.25
2023-03-04T05:40:32.722Z,93623.28
2023-03-04T05:41:29.487Z,93624.63
2023-03-04T05:42:26.131Z,93629.44
2023-03-04T05:43:23.490Z,93623.69
2023-03-04T05:44:20.162Z,93616.59
2023-03-04T05:45:16.910Z,93629.25
2023-03-04T05:46:15.948Z,93590.91
2023-03-04T05:47:14.961Z,93631.59
2023-03-04T05:48:11.609Z,93630.63
2023-03-04T05:49:08.206Z,93620.50
2023-03-04T05:50:05.108Z,93622.78
2023-03-04T05:51:02.423Z,93631.06
2023-03-04T05:52:01.944Z,93633.19
2023-03-04T05:52:58.580Z,93630.16
2023-03-04T05:53:55.250Z,93625.78
2023-03-04T05:54:51.871Z,93636.91
2023-03-04T05:55:49.269Z,93619.69
2023-03-04T05:56:45.914Z,93638.00
2023-03-04T05:57:42.956Z,93636.81
2023-03-04T05:58:39.874Z,93633.28
2023-03-04T05:59:36.454Z,93635.78
2023-03-04T06:00:33.133Z,93640.16
2023-03-04T06:01:31.391Z,93641.53
2023-03-04T06:02:28.034Z,93634.72
2023-03-04T06:03:24.688Z,93641.34
2023-03-04T06:04:21.327Z,93586.63
2023-03-04T06:05:21.533Z,93601.53
2023-03-04T06:06:18.233Z,93623.03
2023-03-04T06:07:14.882Z,93645.03
2023-03-04T06:08:14.629Z,93631.03
2023-03-04T06:09:11.222Z,93641.47
2023-03-04T06:10:08.966Z,93641.38
2023-03-04T06:11:05.924Z,93629.00
2023-03-04T06:12:02.494Z,93647.47
2023-03-04T06:12:59.064Z,93645.63
2023-03-04T06:13:55.962Z,93648.50
2023-03-04T06:14:52.560Z,93652.66
2023-03-04T06:15:54.965Z,93655.50
2023-03-04T06:16:51.805Z,93654.75
2023-03-04T06:17:48.438Z,93650.56
2023-03-04T06:18:45.064Z,93654.59
2023-03-04T06:19:44.611Z,93652.41
2023-03-04T06:20:41.444Z,93653.47
2023-03-04T06:21:38.141Z,93655.50
2023-03-04T06:22:35.041Z,93659.13
2023-03-04T06:23:32.015Z,93659.53
2023-03-04T06:24:28.712Z,93661.38
2023-03-04T06:25:25.822Z,93666.81
2023-03-04T06:26:22.563Z,93660.94
2023-03-04T06:27:19.163Z,93662.88
2023-03-04T06:28:15.861Z,93663.75
2023-03-04T06:29:12.859Z,93630.13
2023-03-04T06:30:10.465Z,93667.47
2023-03-04T06:31:07.596Z,93656.72
2023-03-04T06:32:04.459Z,93672.75
2023-03-04T06:33:01.158Z,93662.53
2023-03-04T06:33:57.852Z,93640.56
2023-03-04T06:34:54.486Z,93668.03
2023-03-04T06:35:55.586Z,93666.72
2023-03-04T06:36:52.315Z,93671.22
2023-03-04T06:37:49.237Z,93670.25
2023-03-04T06:38:45.954Z,93655.75
2023-03-04T06:39:42.589Z,93670.72
2023-03-04T06:40:39.385Z,93667.28
2023-03-04T06:41:36.525Z,93623.53
2023-03-04T06:42:33.918Z,93630.53
2023-03-04T06:43:30.454Z,93670.25
2023-03-04T06:44:27.098Z,93674.28
2023-03-04T06:45:23.747Z,93647.25
2023-03-04T06:46:20.633Z,93675.28
2023-03-04T06:47:18.865Z,93674.38
2023-03-04T06:48:15.492Z,93666.63
2023-03-04T06:49:12.321Z,93633.84
2023-03-04T06:50:09.830Z,93670.53
2023-03-04T06:51:09.057Z,93668.50
2023-03-04T06:52:05.716Z,93668.78
2023-03-04T06:53:02.329Z,93670.69
2023-03-04T06:53:59.068Z,93670.22
2023-03-04T06:54:55.820Z,93673.16
2023-03-04T06:55:52.389Z,93674.22
2023-03-04T06:56:49.027Z,93671.09
2023-03-04T06:57:48.395Z,93675.66
2023-03-04T06:58:45.694Z,93669.91
2023-03-04T06:59:42.370Z,93675.81
2023-03-04T07:00:39.091Z,93668.19
2023-03-04T07:01:36.676Z,93662.75
2023-03-04T07:02:33.348Z,93670.97
2023-03-04T07:03:29.895Z,93681.56
2023-03-04T07:04:26.708Z,93656.81
2023-03-04T07:05:23.305Z,93677.34
2023-03-04T07:06:22.063Z,93669.75
2023-03-04T07:07:18.696Z,93666.63
2023-03-04T07:08:15.603Z,93663.53
2023-03-04T07:09:12.177Z,93667.59
2023-03-04T07:10:10.317Z,93657.63
2023-03-04T07:11:07.383Z,93674.72
2023-03-04T07:12:04.116Z,93669.44
2023-03-04T07:13:01.532Z,93671.00
2023-03-04T07:13:58.325Z,93676.91
2023-03-04T07:14:54.970Z,93663.53
2023-03-04T07:15:51.609Z,93662.91
2023-03-04T07:16:48.358Z,93671.28
2023-03-04T07:17:45.140Z,93674.88
2023-03-04T07:18:41.896Z,93637.72
2023-03-04T07:19:38.625Z,93674.53
2023-03-04T07:20:35.234Z,93675.50
2023-03-04T07:21:31.852Z,93664.75
2023-03-04T07:22:28.419Z,93690.56
2023-03-04T07:23:25.266Z,93673.47
2023-03-04T07:24:21.809Z,93677.81
2023-03-04T07:25:18.406Z,93685.00
2023-03-04T07:26:15.178Z,93684.06
2023-03-04T07:27:11.729Z,93638.47
2023-03-04T07:28:08.305Z,93683.25
2023-03-04T07:29:05.538Z,93648.44
2023-03-04T07:30:02.426Z,93682.31
2023-03-04T07:31:12.115Z,93596.94
2023-03-04T07:32:09.892Z,93682.66
2023-03-04T07:33:06.579Z,93675.50
2023-03-04T07:34:08.609Z,93688.56
2023-03-04T07:35:06.018Z,93637.72
2023-03-04T07:36:02.670Z,93685.44
2023-03-04T07:36:59.238Z,93687.59
2023-03-04T07:37:55.816Z,93655.84
2023-03-04T07:38:54.842Z,93687.63
2023-03-04T07:39:51.646Z,93682.81
2023-03-04T07:40:58.169Z,93677.22
2023-03-04T07:41:54.808Z,93678.59
2023-03-04T07:42:52.847Z,93687.16
2023-03-04T07:43:49.637Z,93678.47
2023-03-04T07:44:46.280Z,93679.41
2023-03-04T07:45:42.904Z,93626.38
2023-03-04T07:46:39.657Z,93650.16
2023-03-04T07:47:36.302Z,93673.78
2023-03-04T07:48:32.951Z,93685.28
2023-03-04T07:49:29.520Z,93679.97
2023-03-04T07:50:26.075Z,93676.19
2023-03-04T07:51:25.013Z,93678.19
2023-03-04T07:52:21.775Z,93679.47
2023-03-04T07:53:18.535Z,93680.69
2023-03-04T07:54:15.302Z,93677.06
2023-03-04T07:55:14.873Z,93681.47
2023-03-04T07:56:14.087Z,93670.63
2023-03-04T07:57:10.817Z,93590.59
2023-03-04T07:58:07.507Z,93623.91
2023-03-04T07:59:04.430Z,93679.31
2023-03-04T08:00:01.930Z,93681.19
2023-03-04T08:00:58.777Z,93676.19
2023-03-04T08:01:55.420Z,93679.97
2023-03-04T08:02:52.170Z,93669.25
2023-03-04T08:03:49.490Z,93674.69
2023-03-04T08:04:46.142Z,93678.91
2023-03-04T08:05:43.443Z,93629.63
2023-03-04T08:06:41.802Z,93683.25
2023-03-04T08:07:38.460Z,93683.06
2023-03-04T08:08:35.866Z,93688.38
2023-03-04T08:09:32.571Z,93676.69
2023-03-04T08:10:29.153Z,93678.72
2023-03-04T08:11:26.760Z,93681.78
2023-03-04T08:12:24.976Z,93686.34
2023-03-04T08:13:21.627Z,93679.06
2023-03-04T08:14:18.540Z,93652.06
2023-03-04T08:15:15.247Z,93683.78
2023-03-04T08:16:16.641Z,93685.81
2023-03-04T08:17:14.841Z,93684.66
2023-03-04T08:18:12.694Z,93680.22
2023-03-04T08:19:09.495Z,93672.75
2023-03-04T08:20:06.679Z,93674.44
2023-03-04T08:21:08.988Z,93675.94
2023-03-04T08:22:05.618Z,93679.03
2023-03-04T08:23:02.243Z,93680.69
2023-03-04T08:24:02.540Z,93681.16
2023-03-04T08:24:59.127Z,93660.06
2023-03-04T08:25:55.811Z,93678.25
2023-03-04T08:26:52.368Z,93680.03
2023-03-04T08:27:48.942Z,93680.03
2023-03-04T08:28:46.010Z,93647.78
2023-03-04T08:29:42.563Z,93680.44
2023-03-04T08:30:40.969Z,93682.50
2023-03-04T08:31:38.326Z,93672.22
2023-03-04T08:32:35.226Z,93677.81
2023-03-04T08:33:32.621Z,93682.16
2023-03-04T08:34:29.490Z,93645.00
2023-03-04T08:35:26.124Z,93658.88
2023-03-04T08:36:22.704Z,93669.09
2023-03-04T08:37:19.357Z,93677.47
2023-03-04T08:38:15.976Z,93670.75
2023-03-04T08:39:14.827Z,93661.28
2023-03-04T08:40:14.492Z,93660.66
2023-03-04T08:41:11.199Z,93677.44
2023-03-04T08:42:07.821Z,93675.59
2023-03-04T08:43:04.496Z,93679.03
2023-03-04T08:44:01.873Z,93667.19
2023-03-04T08:44:58.566Z,93671.41
2023-03-04T08:45:55.634Z,93666.63
2023-03-04T08:46:52.358Z,93674.09
2023-03-04T08:47:49.021Z,93670.34
2023-03-04T08:48:45.604Z,93671.19
2023-03-04T08:49:42.346Z,93622.00
2023-03-04T08:50:39.028Z,93668.72
2023-03-04T08:51:38.685Z,93668.41
2023-03-04T08:52:35.275Z,93668.31
2023-03-04T08:53:31.890Z,93665.72
2023-03-04T08:54:28.502Z,93648.00
2023-03-04T08:55:25.062Z,93561.50
2023-03-04T08:56:21.735Z,93661.72
2023-03-04T08:57:18.385Z,93658.31
2023-03-04T08:58:15.132Z,93657.78
2023-03-04T08:59:11.984Z,93659.00
2023-03-04T09:00:10.747Z,93665.66
2023-03-04T09:01:13.047Z,93662.00
2023-03-04T09:02:10.490Z,93664.41
2023-03-04T09:03:07.189Z,93661.19
2023-03-04T09:04:03.976Z,93660.06
2023-03-04T09:05:00.502Z,93664.50
2023-03-04T09:05:57.214Z,93658.25
2023-03-04T09:06:54.098Z,93649.63
2023-03-04T09:07:51.018Z,93643.03
2023-03-04T09:08:48.891Z,93657.69
2023-03-04T09:09:45.487Z,93651.16
2023-03-04T09:10:42.442Z,93660.00
2023-03-04T09:11:39.057Z,93654.28
2023-03-04T09:12:35.785Z,93655.00
2023-03-04T09:13:32.777Z,93656.66
2023-03-04T09:14:29.417Z,93661.63
2023-03-04T09:15:25.979Z,93654.09
2023-03-04T09:16:22.761Z,93655.19
2023-03-04T09:17:19.467Z,93656.91
2023-03-04T09:18:16.917Z,93658.94
2023-03-04T09:19:13.721Z,93650.19
2023-03-04T09:20:13.205Z,93661.50
2023-03-04T09:21:10.811Z,93650.75
2023-03-04T09:22:07.504Z,93651.28
2023-03-04T09:23:04.269Z,93648.41
2023-03-04T09:24:00.957Z,93655.44
2023-03-04T09:24:57.643Z,93625.94
2023-03-04T09:25:54.327Z,93651.22
2023-03-04T09:26:52.249Z,93651.41
2023-03-04T09:27:48.940Z,93652.09
2023-03-04T09:28:45.621Z,93619.00
2023-03-04T09:29:43.325Z,93609.19
2023-03-04T09:30:40.300Z,93651.88
2023-03-04T09:31:37.007Z,93652.06
2023-03-04T09:32:34.870Z,93646.09
2023-03-04T09:33:31.494Z,93652.28
2023-03-04T09:34:28.193Z,93650.38
2023-03-04T09:35:25.552Z,93650.38
2023-03-04T09:36:22.783Z,93654.28
2023-03-04T09:37:19.510Z,93647.19
2023-03-04T09:38:16.059Z,93653.69
2023-03-04T09:39:12.980Z,93649.31
2023-03-04T09:40:16.239Z,93654.16
2023-03-04T09:41:18.817Z,93656.97
2023-03-04T09:42:23.304Z,93655.19
2023-03-04T09:43:25.080Z,93657.38
2023-03-04T09:44:29.829Z,93658.56
2023-03-04T09:45:36.971Z,93651.34
2023-03-04T09:46:38.597Z,93650.78
2023-03-04T09:47:37.671Z,93642.56
2023-03-04T09:48:44.466Z,93645.59
2023-03-04T09:49:43.882Z,93645.88
2023-03-04T09:50:55.265Z,93639.81
2023-03-04T09:51:57.218Z,93636.69
2023-03-04T09:53:17.329Z,93636.47
2023-03-04T09:54:16.734Z,93635.88
2023-03-04T09:55:37.547Z,93608.19
2023-03-04T09:56:38.470Z,93642.25
2023-03-04T09:57:41.343Z,93646.66
2023-03-04T09:58:53.010Z,93639.81
2023-03-04T10:00:13.138Z,93635.75
2023-03-04T10:01:26.634Z,93635.41
2023-03-04T10:02:43.180Z,93637.00
2023-03-04T10:03:48.457Z,93631.69
2023-03-04T10:04:50.188Z,93640.16
2023-03-04T10:05:53.345Z,93640.69
2023-03-04T10:06:54.542Z,93638.19
2023-03-04T10:08:24.187Z,93632.81
2023-03-04T10:09:28.566Z,93640.13
2023-03-04T10:10:33.510Z,93630.78
2023-03-04T10:11:33.104Z,93635.72
2023-03-04T10:12:33.052Z,93583.19
2023-03-04T10:13:41.802Z,93634.13
2023-03-04T10:14:52.082Z,93635.81
2023-03-04T10:15:51.328Z,93632.84
2023-03-04T10:17:00.916Z,93628.44
2023-03-04T10:18:11.572Z,93606.63
2023-03-04T10:19:14.423Z,93621.13
2023-03-04T10:20:23.702Z,93629.13
2023-03-04T10:21:27.066Z,93597.91
2023-03-04T10:22:35.234Z,93618.16
2023-03-04T10:23:34.851Z,93620.00
2023-03-04T10:24:31.629Z,93624.56
2023-03-04T10:25:31.278Z,93617.19
2023-03-04T10:26:33.160Z,93616.53
2023-03-04T10:27:31.639Z,93621.44
2023-03-04T10:28:30.438Z,93612.84
2023-03-04T10:29:30.198Z,93580.28
2023-03-04T10:30:32.254Z,93607.00
2023-03-04T10:31:37.425Z,93606.72
2023-03-04T10:32:34.222Z,93612.25
2023-03-04T10:33:40.504Z,93609.59
2023-03-04T10:34:37.190Z,93606.84
2023-03-04T10:35:36.752Z,93604.19
2023-03-04T10:37:09.784Z,93608.84
2023-03-04T10:38:07.126Z,93556.72
2023-03-04T10:39:13.387Z,93601.50
2023-03-04T10:40:22.454Z,93603.78
2023-03-04T10:41:26.094Z,93583.47
2023-03-04T10:42:29.800Z,93599.94
2023-03-04T10:43:26.918Z,93583.53
2023-03-04T10:44:24.675Z,93556.63
2023-03-04T10:45:25.361Z,93589.03
2023-03-04T10:46:24.344Z,93586.00
2023-03-04T10:47:25.449Z,93542.97
2023-03-04T10:48:30.181Z,93585.38
2023-03-04T10:49:30.173Z,93567.72
2023-03-04T10:50:28.830Z,93453.94
2023-03-04T10:51:30.508Z,93579.50
2023-03-04T10:52:41.389Z,93549.09
2023-03-04T10:53:41.113Z,93557.53
2023-03-04T10:54:54.166Z,93575.63
2023-03-04T10:55:50.815Z,93576.22
2023-03-04T10:57:03.454Z,93555.22
2023-03-04T10:58:06.395Z,93572.44
2023-03-04T10:59:33.640Z,93577.31
2023-03-04T11:00:33.525Z,93530.94
2023-03-04T11:01:30.658Z,93564.72
2023-03-04T11:02:36.259Z,93565.81
2023-03-04T11:03:38.868Z,93559.41
2023-03-04T11:04:35.483Z,93562.59
2023-03-04T11:05:32.858Z,93503.84
2023-03-04T11:06:31.431Z,93556.41
2023-03-04T11:07:28.078Z,93560.56
2023-03-04T11:08:24.737Z,93555.75
2023-03-04T11:09:24.559Z,93556.31
2023-03-04T11:10:22.662Z,93555.41
2023-03-04T11:11:42.945Z,93553.97
2023-03-04T11:12:39.487Z,93546.66
2023-03-04T11:13:36.214Z,93547.13
2023-03-04T11:14:39.776Z,93545.69
2023-03-04T11:15:53.800Z,93543.34
2023-03-04T11:17:00.305Z,93547.34
2023-03-04T11:18:06.640Z,93524.66
2023-03-04T11:19:11.374Z,93525.59
2023-03-04T11:20:32.510Z,93538.78
2023-03-04T11:21:31.993Z,93555.78
2023-03-04T11:22:31.489Z,93531.63
2023-03-04T11:23:48.072Z,93530.16
2023-03-04T11:24:56.725Z,93527.78
2023-03-04T11:26:01.363Z,93536.78